createdAt,value
2018-11-07T00:00:07.442Z,11.80
2018-11-07T00:02:36.006Z,11.80
2018-11-07T00:05:04.904Z,11.80
2018-11-07T00:07:33.463Z,11.80
2018-11-07T00:10:01.979Z,11.80
2018-11-07T00:12:30.582Z,11.80
2018-11-07T00:14:59.090Z,11.80
2018-11-07T00:17:27.625Z,11.70
2018-11-07T00:19:56.212Z,11.70
2018-11-07T00:22:24.732Z,11.70
2018-11-07T00:24:53.310Z,11.70
2018-11-07T00:27:21.790Z,11.70
2018-11-07T00:29:50.372Z,11.60
2018-11-07T00:32:18.902Z,11.60
2018-11-07T00:34:47.454Z,11.60
2018-11-07T00:37:15.984Z,11.50
2018-11-07T00:39:44.536Z,11.50
2018-11-07T00:42:13.068Z,11.40
2018-11-07T00:44:41.676Z,11.50
2018-11-07T00:47:10.222Z,11.50
2018-11-07T00:49:38.810Z,11.50
2018-11-07T00:52:07.369Z,11.50
2018-11-07T00:54:36.054Z,11.50
2018-11-07T00:57:04.580Z,11.50
2018-11-07T00:59:33.164Z,11.50
2018-11-07T01:02:01.687Z,11.40
2018-11-07T01:04:30.254Z,11.40
2018-11-07T01:06:58.774Z,11.40
2018-11-07T01:09:27.381Z,11.30
2018-11-07T01:11:55.884Z,11.30
2018-11-07T01:14:24.392Z,11.20
2018-11-07T01:16:52.939Z,11.20
2018-11-07T01:19:21.434Z,11.20
2018-11-07T01:21:49.999Z,11.10
2018-11-07T01:24:18.508Z,11.10
2018-11-07T01:26:47.075Z,11.10
2018-11-07T01:29:15.616Z,11.10
2018-11-07T01:31:44.185Z,11.00
2018-11-07T01:34:12.810Z,11.00
2018-11-07T01:36:41.356Z,11.00
2018-11-07T01:39:10.605Z,11.00
2018-11-07T01:41:39.553Z,11.00
2018-11-07T01:44:08.401Z,11.00
2018-11-07T01:46:37.010Z,11.00
2018-11-07T01:49:05.615Z,11.10
2018-11-07T01:51:34.161Z,11.10
2018-11-07T01:54:02.811Z,11.00
2018-11-07T01:56:31.397Z,11.00
2018-11-07T01:58:59.961Z,11.00
2018-11-07T02:01:28.589Z,11.00
2018-11-07T02:03:57.109Z,10.90
2018-11-07T02:06:25.657Z,10.90
2018-11-07T02:08:54.204Z,10.90
2018-11-07T02:11:22.747Z,10.90
2018-11-07T02:13:51.326Z,10.80
2018-11-07T02:16:19.821Z,10.80
2018-11-07T02:18:48.396Z,10.80
2018-11-07T02:21:16.972Z,10.80
2018-11-07T02:23:45.530Z,10.70
2018-11-07T02:26:14.113Z,10.70
2018-11-07T02:28:42.676Z,10.70
2018-11-07T02:31:11.294Z,10.70
2018-11-07T02:33:39.862Z,10.60
2018-11-07T02:36:08.492Z,10.70
2018-11-07T02:38:37.098Z,10.60
2018-11-07T02:41:06.033Z,10.60
2018-11-07T02:43:34.636Z,10.60
2018-11-07T02:46:03.169Z,10.60
2018-11-07T02:48:31.728Z,10.60
2018-11-07T02:51:00.316Z,10.60
2018-11-07T02:53:28.939Z,10.50
2018-11-07T02:55:57.492Z,10.50
2018-11-07T02:58:26.107Z,10.50
2018-11-07T03:00:54.675Z,10.50
2018-11-07T03:03:23.208Z,10.50
2018-11-07T03:05:51.744Z,10.50
2018-11-07T03:08:20.285Z,10.50
2018-11-07T03:10:48.906Z,10.50
2018-11-07T03:13:17.371Z,10.40
2018-11-07T03:15:45.915Z,10.40
2018-11-07T03:18:14.416Z,10.40
2018-11-07T03:20:43.032Z,10.40
2018-11-07T03:23:11.547Z,10.50
2018-11-07T03:25:40.132Z,10.50
2018-11-07T03:28:08.636Z,10.50
2018-11-07T03:30:37.218Z,10.50
2018-11-07T03:33:05.897Z,10.50
2018-11-07T03:35:34.466Z,10.50
2018-11-07T03:38:02.982Z,10.50
2018-11-07T03:40:32.455Z,10.40
2018-11-07T03:43:00.974Z,10.50
2018-11-07T03:45:34.779Z,10.40
2018-11-07T03:48:03.292Z,10.40
2018-11-07T03:50:31.874Z,10.40
2018-11-07T03:53:00.490Z,10.40
2018-11-07T03:55:28.957Z,10.40
2018-11-07T03:57:57.503Z,10.40
2018-11-07T04:00:26.097Z,10.40
2018-11-07T04:02:54.636Z,10.30
2018-11-07T04:05:23.201Z,10.30
2018-11-07T04:07:51.766Z,10.30
2018-11-07T04:10:20.292Z,10.30
2018-11-07T04:12:48.838Z,10.30
2018-11-07T04:15:17.375Z,10.30
2018-11-07T04:17:45.910Z,10.20
2018-11-07T04:20:14.421Z,10.20
2018-11-07T04:22:42.942Z,10.20
2018-11-07T04:25:11.458Z,10.20
2018-11-07T04:27:39.986Z,10.20
2018-11-07T04:30:10.395Z,10.20
2018-11-07T04:32:38.967Z,10.10
2018-11-07T04:35:08.650Z,10.10
2018-11-07T04:37:37.186Z,10.10
2018-11-07T04:40:06.588Z,10.10
2018-11-07T04:42:35.200Z,10.10
2018-11-07T04:45:03.820Z,10.10
2018-11-07T04:47:32.531Z,10.10
2018-11-07T04:50:01.103Z,10.00
2018-11-07T04:52:29.607Z,10.00
2018-11-07T04:54:58.518Z,10.00
2018-11-07T04:57:27.254Z,10.00
2018-11-07T04:59:55.869Z,10.00
2018-11-07T05:02:24.374Z,10.00
2018-11-07T05:04:52.958Z,10.00
2018-11-07T05:07:21.472Z,9.90
2018-11-07T05:09:50.146Z,9.90
2018-11-07T05:12:18.686Z,9.90
2018-11-07T05:14:47.281Z,9.80
2018-11-07T05:17:15.791Z,9.80
2018-11-07T05:19:44.500Z,9.80
2018-11-07T05:22:12.948Z,9.80
2018-11-07T05:24:41.548Z,9.70
2018-11-07T05:27:10.070Z,9.70
2018-11-07T05:29:38.667Z,9.70
2018-11-07T05:32:07.346Z,9.70
2018-11-07T05:34:35.824Z,9.70
2018-11-07T05:37:04.429Z,9.70
2018-11-07T05:39:33.033Z,9.60
2018-11-07T05:42:01.602Z,9.60
2018-11-07T05:44:30.366Z,9.60
2018-11-07T05:46:58.945Z,9.60
2018-11-07T05:49:27.473Z,9.60
2018-11-07T05:51:56.064Z,9.60
2018-11-07T05:54:24.623Z,9.60
2018-11-07T05:56:53.204Z,9.70
2018-11-07T05:59:21.762Z,9.70
2018-11-07T06:01:50.408Z,9.80
2018-11-07T06:04:18.912Z,9.80
2018-11-07T06:06:47.536Z,9.80
2018-11-07T06:09:16.108Z,9.80
2018-11-07T06:11:44.712Z,9.80
2018-11-07T06:14:13.218Z,9.80
2018-11-07T06:16:41.833Z,9.80
2018-11-07T06:19:10.399Z,9.80
2018-11-07T06:21:38.990Z,9.70
2018-11-07T06:24:07.534Z,9.80
2018-11-07T06:26:36.097Z,9.70
2018-11-07T06:29:04.702Z,9.70
2018-11-07T06:31:33.557Z,9.70
2018-11-07T06:34:02.218Z,9.80
2018-11-07T06:36:30.782Z,9.80
2018-11-07T06:38:59.323Z,9.80
2018-11-07T06:41:27.876Z,9.90
2018-11-07T06:43:56.406Z,9.90
2018-11-07T06:46:24.970Z,10.00
2018-11-07T06:48:53.559Z,10.00
2018-11-07T06:51:22.117Z,10.00
2018-11-07T06:53:50.666Z,10.00
2018-11-07T06:56:19.175Z,10.10
2018-11-07T06:58:47.758Z,10.10
2018-11-07T07:01:16.428Z,10.20
2018-11-07T07:03:44.933Z,10.20
2018-11-07T07:06:13.479Z,10.30
2018-11-07T07:08:42.035Z,10.40
2018-11-07T07:11:10.577Z,10.40
2018-11-07T07:13:39.151Z,10.50
2018-11-07T07:16:07.682Z,10.50
2018-11-07T07:18:36.223Z,10.60
2018-11-07T07:21:04.990Z,10.70
2018-11-07T07:23:33.560Z,10.70
2018-11-07T07:26:02.035Z,10.70
2018-11-07T07:28:30.620Z,10.80
2018-11-07T07:30:59.174Z,10.80
2018-11-07T07:33:27.766Z,10.80
2018-11-07T07:35:56.414Z,10.90
2018-11-07T07:38:24.934Z,11.00
2018-11-07T07:40:53.511Z,11.00
2018-11-07T07:43:22.280Z,11.10
2018-11-07T07:45:51.267Z,11.10
2018-11-07T07:48:21.319Z,11.20
2018-11-07T07:50:51.353Z,11.20
2018-11-07T07:53:21.008Z,11.20
2018-11-07T07:55:49.806Z,11.20
2018-11-07T07:58:19.788Z,11.30
2018-11-07T08:00:48.661Z,11.30
2018-11-07T08:03:17.578Z,11.30
2018-11-07T08:05:46.569Z,11.30
2018-11-07T08:08:15.394Z,11.40
2018-11-07T08:10:44.507Z,11.40
2018-11-07T08:13:15.932Z,11.40
2018-11-07T08:15:47.843Z,11.50
2018-11-07T08:18:16.855Z,11.50
2018-11-07T08:20:45.780Z,11.60
2018-11-07T08:23:14.631Z,11.60
2018-11-07T08:25:43.695Z,11.70
2018-11-07T08:28:13.397Z,11.70
2018-11-07T08:30:42.461Z,11.70
2018-11-07T08:33:11.486Z,11.80
2018-11-07T08:35:41.484Z,11.80
2018-11-07T08:38:10.811Z,11.80
2018-11-07T08:40:40.354Z,11.90
2018-11-07T08:43:09.161Z,12.00
2018-11-07T08:45:37.759Z,12.00
2018-11-07T08:48:06.801Z,12.00
2018-11-07T08:50:35.826Z,12.00
2018-11-07T08:53:05.347Z,12.00
2018-11-07T08:55:34.497Z,12.10
2018-11-07T08:58:04.822Z,12.10
2018-11-07T09:00:34.035Z,12.10
2018-11-07T09:03:04.203Z,12.20
2018-11-07T09:05:34.044Z,12.30
2018-11-07T09:08:04.280Z,12.40
2018-11-07T09:10:33.935Z,12.60
2018-11-07T09:13:04.189Z,12.70
2018-11-07T09:15:34.220Z,12.90
2018-11-07T09:18:03.790Z,13.00
2018-11-07T09:20:33.614Z,13.20
2018-11-07T09:23:03.557Z,13.30
2018-11-07T09:25:32.505Z,13.40
2018-11-07T09:28:02.423Z,13.50
2018-11-07T09:30:31.883Z,13.60
2018-11-07T09:33:02.637Z,13.70
2018-11-07T09:35:32.147Z,13.80
2018-11-07T09:38:05.241Z,13.90
2018-11-07T09:40:34.109Z,14.10
2018-11-07T09:43:04.034Z,14.10
2018-11-07T09:45:33.384Z,14.10
2018-11-07T09:48:02.253Z,14.20
2018-11-07T09:50:33.264Z,14.20
2018-11-07T09:53:01.897Z,14.20
2018-11-07T09:55:30.580Z,14.20
2018-11-07T09:57:59.150Z,14.20
2018-11-07T10:00:27.979Z,14.20
2018-11-07T10:02:56.591Z,14.20
2018-11-07T10:05:25.346Z,14.20
2018-11-07T10:07:53.951Z,14.20
2018-11-07T10:10:23.835Z,14.20
2018-11-07T10:12:53.458Z,14.20
2018-11-07T10:15:22.284Z,14.30
2018-11-07T10:17:53.616Z,14.40
2018-11-07T10:20:24.342Z,14.50
2018-11-07T10:23:00.668Z,14.50
2018-11-07T10:25:29.805Z,14.60
2018-11-07T10:27:58.960Z,14.60
2018-11-07T10:30:27.335Z,14.70
2018-11-07T10:32:58.057Z,14.70
2018-11-07T10:35:27.032Z,14.80
2018-11-07T10:37:56.018Z,14.80
2018-11-07T10:40:25.596Z,14.90
2018-11-07T10:42:55.126Z,15.00
2018-11-07T10:45:24.940Z,15.10
2018-11-07T10:47:54.496Z,15.10
2018-11-07T10:50:23.486Z,15.20
2018-11-07T10:52:52.454Z,15.30
2018-11-07T10:55:21.457Z,15.40
2018-11-07T10:57:52.153Z,15.40
2018-11-07T11:00:28.651Z,15.50
2018-11-07T11:03:09.861Z,15.50
2018-11-07T11:05:39.496Z,15.40
2018-11-07T11:08:09.169Z,15.50
2018-11-07T11:10:38.574Z,15.60
2018-11-07T11:13:07.363Z,15.70
2018-11-07T11:15:35.880Z,15.80
2018-11-07T11:18:04.480Z,15.80
2018-11-07T11:20:33.045Z,15.90
2018-11-07T11:25:35.434Z,15.80
2018-11-07T11:28:04.007Z,15.90
2018-11-07T11:30:32.537Z,15.90
2018-11-07T11:33:03.090Z,15.80
2018-11-07T11:35:31.603Z,15.70
2018-11-07T11:38:00.144Z,15.80
2018-11-07T11:40:28.745Z,15.90
2018-11-07T11:42:57.277Z,15.80
2018-11-07T11:45:25.822Z,15.80
2018-11-07T11:47:54.383Z,15.80
2018-11-07T11:50:22.919Z,15.90
2018-11-07T11:52:51.491Z,15.90
2018-11-07T11:55:20.055Z,15.90
2018-11-07T11:57:48.730Z,15.80
2018-11-07T12:00:18.668Z,15.80
2018-11-07T12:02:47.651Z,15.80
2018-11-07T12:05:17.238Z,15.80
2018-11-07T12:07:45.815Z,15.80
2018-11-07T12:10:20.686Z,15.80
2018-11-07T12:12:50.343Z,15.90
2018-11-07T12:15:20.077Z,15.80
2018-11-07T12:17:48.569Z,15.90
2018-11-07T12:20:17.248Z,15.90
2018-11-07T12:22:45.778Z,15.90
2018-11-07T12:25:15.083Z,16.00
2018-11-07T12:27:44.095Z,16.00
2018-11-07T12:30:14.869Z,16.10
2018-11-07T12:32:44.670Z,16.10
2018-11-07T12:35:13.571Z,16.20
2018-11-07T12:37:42.535Z,16.20
2018-11-07T12:40:11.847Z,16.30
2018-11-07T12:42:40.474Z,16.30
2018-11-07T12:45:11.606Z,16.40
2018-11-07T12:47:40.451Z,16.50
2018-11-07T12:50:12.826Z,16.50
2018-11-07T12:52:41.499Z,16.50
2018-11-07T12:55:11.370Z,16.40
2018-11-07T12:57:40.003Z,16.40
2018-11-07T13:00:18.679Z,16.30
2018-11-07T13:02:47.268Z,16.20
2018-11-07T13:05:16.984Z,16.20
2018-11-07T13:07:46.456Z,16.20
2018-11-07T13:10:17.268Z,16.10
2018-11-07T13:12:46.523Z,16.10
2018-11-07T13:15:15.784Z,16.00
2018-11-07T13:17:44.808Z,16.00
2018-11-07T13:20:15.799Z,15.90
2018-11-07T13:22:45.443Z,15.90
2018-11-07T13:25:14.558Z,15.90
2018-11-07T13:27:43.147Z,15.80
2018-11-07T13:30:16.377Z,15.80
2018-11-07T13:32:44.938Z,15.70
2018-11-07T13:35:14.251Z,15.70
2018-11-07T13:37:43.688Z,15.70
2018-11-07T13:40:15.494Z,15.70
2018-11-07T13:42:44.114Z,15.60
2018-11-07T13:45:15.001Z,15.60
2018-11-07T13:47:44.675Z,15.60
2018-11-07T13:50:13.888Z,15.60
2018-11-07T13:52:42.531Z,15.60
2018-11-07T13:55:11.943Z,15.60
2018-11-07T13:57:41.097Z,15.50
2018-11-07T14:00:11.591Z,15.50
2018-11-07T14:02:40.231Z,15.50
2018-11-07T14:05:09.843Z,15.40
2018-11-07T14:07:38.655Z,15.40
2018-11-07T14:10:12.855Z,15.40
2018-11-07T14:12:41.939Z,15.30
2018-11-07T14:15:12.490Z,15.30
2018-11-07T14:17:41.263Z,15.20
2018-11-07T14:20:10.015Z,15.20
2018-11-07T14:22:38.904Z,15.10
2018-11-07T14:25:08.574Z,15.10
2018-11-07T14:27:37.474Z,15.00
2018-11-07T14:30:09.239Z,15.00
2018-11-07T14:32:38.903Z,14.90
2018-11-07T14:35:07.599Z,14.90
2018-11-07T14:37:36.143Z,14.90
2018-11-07T14:40:04.811Z,14.80
2018-11-07T14:42:33.351Z,14.80
2018-11-07T14:45:03.151Z,14.70
2018-11-07T14:47:31.755Z,14.70
2018-11-07T14:50:00.311Z,14.60
2018-11-07T14:52:28.818Z,14.60
2018-11-07T14:54:57.425Z,14.60
2018-11-07T14:57:25.978Z,14.60
2018-11-07T14:59:54.574Z,14.50
2018-11-07T15:02:23.181Z,14.50
2018-11-07T15:04:51.731Z,14.40
2018-11-07T15:07:20.278Z,14.40
2018-11-07T15:09:48.809Z,14.30
2018-11-07T15:12:17.387Z,14.30
2018-11-07T15:14:45.929Z,14.20
2018-11-07T15:17:14.503Z,14.20
2018-11-07T15:19:43.016Z,14.10
2018-11-07T15:22:11.595Z,14.10
2018-11-07T15:24:40.153Z,14.00
2018-11-07T15:27:09.023Z,14.00
2018-11-07T15:29:37.575Z,13.90
2018-11-07T15:32:06.511Z,13.80
2018-11-07T15:34:35.728Z,13.80
2018-11-07T15:37:04.687Z,13.80
2018-11-07T15:39:33.246Z,13.70
2018-11-07T15:42:02.368Z,13.70
2018-11-07T15:44:30.943Z,13.60
2018-11-07T15:46:59.544Z,13.50
2018-11-07T15:49:28.175Z,13.50
2018-11-07T15:51:56.913Z,13.40
2018-11-07T15:54:25.331Z,13.40
2018-11-07T15:56:53.943Z,13.40
2018-11-07T15:59:22.478Z,13.40
2018-11-07T16:01:51.447Z,13.30
2018-11-07T16:04:20.005Z,13.30
2018-11-07T16:06:48.599Z,13.30
2018-11-07T16:09:17.178Z,13.20
2018-11-07T16:11:45.735Z,13.20
2018-11-07T16:14:14.361Z,13.20
2018-11-07T16:16:42.879Z,13.20
2018-11-07T16:19:11.533Z,13.10
2018-11-07T16:21:40.151Z,13.10
2018-11-07T16:24:08.877Z,13.10
2018-11-07T16:26:37.972Z,13.10
2018-11-07T16:29:06.591Z,13.10
2018-11-07T16:31:35.200Z,13.10
2018-11-07T16:34:03.879Z,13.10
2018-11-07T16:36:32.440Z,13.10
2018-11-07T16:39:00.992Z,13.10
2018-11-07T16:41:29.718Z,13.20
2018-11-07T16:43:58.171Z,13.20
2018-11-07T16:46:26.805Z,13.20
2018-11-07T16:48:55.302Z,13.20
2018-11-07T16:51:23.890Z,13.20
2018-11-07T16:53:52.469Z,13.20
2018-11-07T16:56:21.027Z,13.20
2018-11-07T16:58:49.574Z,13.20
2018-11-07T17:01:18.170Z,13.20
2018-11-07T17:03:46.743Z,13.10
2018-11-07T17:06:15.279Z,13.10
2018-11-07T17:08:43.861Z,13.20
2018-11-07T17:11:12.403Z,13.10
2018-11-07T17:13:40.979Z,13.10
2018-11-07T17:16:09.520Z,13.20
2018-11-07T17:18:38.123Z,13.20
2018-11-07T17:21:06.647Z,13.20
2018-11-07T17:23:35.301Z,13.10
2018-11-07T17:26:03.855Z,13.20
2018-11-07T17:28:32.411Z,13.20
2018-11-07T17:31:00.947Z,13.20
2018-11-07T17:33:29.647Z,13.20
2018-11-07T17:35:58.134Z,13.20
2018-11-07T17:38:26.720Z,13.30
2018-11-07T17:40:55.232Z,13.20
2018-11-07T17:43:23.779Z,13.30
2018-11-07T17:45:52.306Z,13.20
2018-11-07T17:48:21.000Z,13.20
2018-11-07T17:50:49.474Z,13.10
2018-11-07T17:53:18.110Z,13.10
2018-11-07T17:55:46.702Z,13.10
2018-11-07T17:58:15.320Z,13.10
2018-11-07T18:00:43.897Z,13.10
2018-11-07T18:03:12.566Z,13.10
2018-11-07T18:05:41.162Z,13.10
2018-11-07T18:08:09.682Z,13.10
2018-11-07T18:10:38.290Z,13.10
2018-11-07T18:13:06.835Z,13.20
2018-11-07T18:15:35.455Z,13.20
2018-11-07T18:18:04.107Z,13.10
2018-11-07T18:20:32.729Z,13.10
2018-11-07T18:23:01.276Z,13.10
2018-11-07T18:25:29.971Z,13.00
2018-11-07T18:27:58.878Z,13.00
2018-11-07T18:30:27.482Z,13.00
2018-11-07T18:32:56.090Z,13.00
2018-11-07T18:35:24.677Z,13.00
2018-11-07T18:37:53.259Z,13.00
2018-11-07T18:40:21.915Z,13.00
2018-11-07T18:42:50.503Z,13.00
2018-11-07T18:45:19.178Z,13.10
2018-11-07T18:47:48.372Z,13.10
2018-11-07T18:50:18.426Z,13.10
2018-11-07T18:52:47.042Z,13.10
2018-11-07T18:55:16.596Z,13.20
2018-11-07T18:57:45.802Z,13.20
2018-11-07T19:00:16.212Z,13.20
2018-11-07T19:02:45.456Z,13.20
2018-11-07T19:05:14.036Z,13.20
2018-11-07T19:07:42.807Z,13.20
2018-11-07T19:10:14.029Z,13.20
2018-11-07T19:12:42.830Z,13.10
2018-11-07T19:15:12.636Z,13.20
2018-11-07T19:17:42.382Z,13.20
2018-11-07T19:20:12.213Z,13.20
2018-11-07T19:22:40.701Z,13.20
2018-11-07T19:25:11.578Z,13.20
2018-11-07T19:27:40.160Z,13.20
2018-11-07T19:30:11.410Z,13.10
2018-11-07T19:32:39.970Z,13.10
2018-11-07T19:35:10.080Z,13.10
2018-11-07T19:37:38.814Z,13.00
2018-11-07T19:40:09.142Z,13.00
2018-11-07T19:42:37.672Z,13.00
2018-11-07T19:45:08.470Z,13.00
2018-11-07T19:47:37.727Z,13.00
2018-11-07T19:50:07.242Z,13.00
2018-11-07T19:52:36.238Z,13.00
2018-11-07T19:55:05.507Z,13.00
2018-11-07T19:57:34.037Z,12.90
2018-11-07T20:00:03.571Z,12.90
2018-11-07T20:02:32.160Z,12.90
2018-11-07T20:05:00.796Z,12.90
2018-11-07T20:07:29.356Z,12.90
2018-11-07T20:09:57.912Z,12.90
2018-11-07T20:12:26.929Z,12.90
2018-11-07T20:14:55.504Z,12.80
2018-11-07T20:17:24.035Z,12.80
2018-11-07T20:19:52.608Z,12.80
2018-11-07T20:22:21.192Z,12.80
2018-11-07T20:24:49.750Z,12.70
2018-11-07T20:27:18.330Z,12.70
2018-11-07T20:29:46.907Z,12.70
2018-11-07T20:32:15.451Z,12.80
2018-11-07T20:34:44.002Z,12.70
2018-11-07T20:37:12.650Z,12.70
2018-11-07T20:39:41.207Z,12.70
2018-11-07T20:42:09.870Z,12.80
2018-11-07T20:44:38.474Z,12.70
2018-11-07T20:47:07.040Z,12.70
2018-11-07T20:49:35.676Z,12.70
2018-11-07T20:52:04.641Z,12.60
2018-11-07T20:54:33.252Z,12.60
2018-11-07T20:57:03.078Z,12.60
2018-11-07T20:59:31.675Z,12.60
2018-11-07T21:02:00.383Z,12.60
2018-11-07T21:04:28.865Z,12.60
2018-11-07T21:06:57.679Z,12.70
2018-11-07T21:09:26.233Z,12.60
2018-11-07T21:11:54.807Z,12.60
2018-11-07T21:14:23.399Z,12.60
2018-11-07T21:16:52.045Z,12.60
2018-11-07T21:19:20.522Z,12.60
2018-11-07T21:21:49.096Z,12.60
2018-11-07T21:24:17.791Z,12.60
2018-11-07T21:26:46.347Z,12.60
2018-11-07T21:29:14.891Z,12.60
2018-11-07T21:31:43.515Z,12.70
2018-11-07T21:34:12.068Z,12.60
2018-11-07T21:36:40.615Z,12.60
2018-11-07T21:39:10.865Z,12.60
2018-11-07T21:41:39.895Z,12.60
2018-11-07T21:44:08.627Z,12.60
2018-11-07T21:46:37.156Z,12.60
2018-11-07T21:49:05.971Z,12.60
2018-11-07T21:51:34.570Z,12.60
2018-11-07T21:54:03.167Z,12.60
2018-11-07T21:56:31.690Z,12.50
2018-11-07T21:59:00.329Z,12.50
2018-11-07T22:01:28.899Z,12.40
2018-11-07T22:03:57.497Z,12.30
2018-11-07T22:06:26.039Z,12.20
2018-11-07T22:08:54.588Z,12.10
2018-11-07T22:11:23.161Z,12.10
2018-11-07T22:13:51.727Z,12.00
2018-11-07T22:16:20.263Z,12.00
2018-11-07T22:18:48.799Z,11.90
2018-11-07T22:21:17.335Z,11.90
2018-11-07T22:23:45.962Z,11.80
2018-11-07T22:26:14.507Z,11.80
2018-11-07T22:28:43.055Z,11.80
2018-11-07T22:31:11.727Z,11.70
2018-11-07T22:33:40.302Z,11.70
2018-11-07T22:36:08.920Z,11.70
2018-11-07T22:38:37.463Z,11.60
2018-11-07T22:41:06.203Z,11.50
2018-11-07T22:43:34.814Z,11.50
2018-11-07T22:46:03.355Z,11.40
2018-11-07T22:48:31.847Z,11.40
2018-11-07T22:51:00.399Z,11.40
2018-11-07T22:53:28.935Z,11.30
2018-11-07T22:55:57.518Z,11.30
2018-11-07T22:58:26.076Z,11.30
2018-11-07T23:02:03.340Z,11.20
2018-11-07T23:04:31.908Z,11.30
2018-11-07T23:07:00.468Z,11.30
2018-11-07T23:09:29.024Z,11.30
2018-11-07T23:11:57.628Z,11.20
2018-11-07T23:14:26.151Z,11.20
2018-11-07T23:16:54.764Z,11.20
2018-11-07T23:19:23.440Z,11.20
2018-11-07T23:21:52.020Z,11.10
2018-11-07T23:24:20.545Z,11.10
2018-11-07T23:26:49.107Z,11.00
2018-11-07T23:29:17.666Z,10.90
2018-11-07T23:31:46.216Z,10.90
2018-11-07T23:34:14.773Z,10.90
2018-11-07T23:36:43.339Z,10.80
2018-11-07T23:39:11.872Z,10.80
2018-11-07T23:41:40.455Z,10.70
2018-11-07T23:44:08.975Z,10.70
2018-11-07T23:46:37.478Z,10.60
2018-11-07T23:49:06.112Z,10.60
2018-11-07T23:51:34.617Z,10.50
2018-11-07T23:54:03.179Z,10.50
2018-11-07T23:56:31.719Z,10.40
2018-11-07T23:59:00.326Z,10.40
